Sunday, December 21, 2014
12:46 UTC
  |  Log In   |  Register Free
Airport Search:

Lenawee County Airport
(KADG)

Lenawee County Airport Diagram
No Airport Diagram Available

FAA data valid effective November 13, 2014 - January 08, 2015 (unless otherwise noted).

 
 
 
 
 
 
 
 
 
 
 
 
 
 

Current Aviation Weather for Lenawee County Airport (KADG)

The most recent METAR observation for KADG was updated at: 2111
METAR Summary (Translated METAR)
KADG
182053Z AUTO 26008KT 10SM BKN016 OVC027 M01/M03 A3018 RMK AO2 SLP230 T10061033 55001 $
KUSE
182115Z AUTO 27008KT 10SM OVC022 M01/M03 A3018 RMK AO2
(15.6 nm SW from KADG)
KDUH
182054Z AUTO 25005KT 10SM OVC026 00/M02 A3018 RMK AO2
(20.5 nm SE from KADG)
TAF
No TAF information found within 50 nm of KADG
  Airport Weather Conditions for KADG

 Current Weather at ADG
27° F
Fog/Mist
North winds at 0.0 mph
ADG NOAA Radar

Pressure: 30.31 in
Humidity: 89%
Wind: Calm
Dew Point: 24.1°F
Visibility: 5.00 mi


Airport Weather Forecast for KADG

Translated METAR and TAF for KADG
Translated METAR for KADG (1246 UTC 21 December 2014)
found at http://aviationweather.gov/adds/metars/
 
METAR text: KADG 211221Z AUTO 00000KT 6SM BR FEW017 BKN031 OVC060 M03/M04 A3031 RMK AO2 T10281044 $
Conditions at: KADG (ADRIAN , MI, US) observed 1221 UTC 21 December 2014
Temperature: -2.8°C (27°F)
Dewpoint: -4.4°C (24°F) [RH = 89%]
Pressure (altimeter): 30.31 inches Hg (1026.5 mb)
Winds: calm
Visibility: 6 miles (10 km)
Ceiling: 3100 feet AGL
Clouds: few clouds at 1700 feet AGL
broken clouds at 3100 feet AGL
overcast cloud deck at 6000 feet AGL
Weather: BR  (mist)
SOME DATA ABOVE MAY BE INACCURATE!!!
"$" is an indication the sensor requires maintenance
Translated TAF for KADG

There is no translated TAF available for this airport

Find All Airport Services Find A Hotel Find A Rental Car Find A Golf Course Find A Restaurant $100 Hamburger



FBO's on the Field
FBO Company Facility Photos Services Transportation Aviation Fuel Prices: Prices include tax
Catering Weather Repair Courtesy Rental Type 100LL JetA JetA+ MOGAS 8087
 
Lenawee County Airport

This FBO has not yet been rated
FS:Avfuel
Last Updated: Nov-19
Login to update fuel prices
SS:
Contact Lenawee County AirportMore FBO Information
 
Add another FBO Facility Photos Catering Weather Repair Courtesy Rental Type 100LL JetA JetA+ MOGAS 8087
Services Transportation Aviation Fuel Prices: Prices include tax


model-print
model-print
model-print
model-print